createdAt,value
2022-11-17T00:02:27.063Z,32.87
2022-11-17T00:04:54.426Z,29.93
2022-11-17T00:07:21.498Z,30.00
2022-11-17T00:09:49.076Z,29.23
2022-11-17T00:12:35.250Z,33.73
2022-11-17T00:15:02.628Z,28.40
2022-11-17T00:17:30.889Z,31.50
2022-11-17T00:20:17.095Z,29.87
2022-11-17T00:22:44.509Z,33.83
2022-11-17T00:25:11.925Z,30.63
2022-11-17T00:27:39.368Z,39.17
2022-11-17T00:30:07.450Z,32.07
2022-11-17T00:32:53.611Z,31.13
2022-11-17T00:35:21.015Z,36.80
2022-11-17T00:38:07.281Z,34.53
2022-11-17T00:40:34.662Z,26.97
2022-11-17T00:43:01.733Z,28.67
2022-11-17T00:45:29.112Z,26.87
2022-11-17T00:47:56.139Z,26.67
2022-11-17T00:50:24.121Z,35.57
2022-11-17T00:52:51.732Z,30.40
2022-11-17T00:55:18.838Z,29.70
2022-11-17T00:57:46.291Z,27.63
2022-11-17T01:00:13.734Z,29.47
2022-11-17T01:02:41.152Z,34.00
2022-11-17T01:05:08.561Z,27.97
2022-11-17T01:07:36.058Z,25.87
2022-11-17T01:10:03.573Z,23.30
2022-11-17T01:12:31.047Z,23.83
2022-11-17T01:14:58.031Z,21.33
2022-11-17T01:17:25.210Z,22.83
2022-11-17T01:19:52.764Z,22.80
2022-11-17T01:22:19.807Z,20.47
2022-11-17T01:24:47.163Z,20.33
2022-11-17T01:27:14.195Z,26.60
2022-11-17T01:29:41.558Z,20.73
2022-11-17T01:32:08.926Z,20.47
2022-11-17T01:34:35.905Z,25.50
2022-11-17T01:37:21.318Z,20.80
2022-11-17T01:39:49.317Z,22.27
2022-11-17T01:42:16.748Z,23.53
2022-11-17T01:44:48.229Z,19.60
2022-11-17T01:47:40.608Z,18.60
2022-11-17T01:50:20.540Z,18.20
2022-11-17T01:52:50.717Z,19.27
2022-11-17T01:55:21.748Z,17.80
2022-11-17T01:58:03.321Z,19.30
2022-11-17T02:00:30.841Z,19.90
2022-11-17T02:02:58.368Z,21.67
2022-11-17T02:05:52.846Z,22.57
2022-11-17T02:08:22.349Z,20.90
2022-11-17T02:10:52.101Z,19.87
2022-11-17T02:13:21.209Z,18.17
2022-11-17T02:15:49.171Z,20.87
2022-11-17T02:18:17.589Z,15.47
2022-11-17T02:21:05.455Z,23.93
2022-11-17T02:23:53.562Z,18.93
2022-11-17T02:26:21.976Z,17.27
2022-11-17T02:28:54.743Z,17.50
2022-11-17T02:31:45.932Z,20.47
2022-11-17T02:34:28.036Z,18.87
2022-11-17T02:36:55.432Z,15.83
2022-11-17T02:39:38.439Z,16.50
2022-11-17T02:42:14.059Z,14.67
2022-11-17T02:44:41.410Z,17.73
2022-11-17T02:47:14.618Z,14.47
2022-11-17T02:49:50.360Z,13.67
2022-11-17T02:52:18.982Z,15.53
2022-11-17T02:54:46.363Z,15.23
2022-11-17T02:57:32.675Z,13.77
2022-11-17T03:00:04.637Z,14.63
2022-11-17T03:03:05.686Z,14.80
2022-11-17T03:05:46.432Z,12.07
2022-11-17T03:08:33.358Z,16.90
2022-11-17T03:11:07.219Z,10.53
2022-11-17T03:13:59.480Z,15.70
2022-11-17T03:16:49.592Z,12.03
2022-11-17T03:19:43.817Z,13.13
2022-11-17T03:22:32.213Z,11.63
2022-11-17T03:25:04.531Z,12.73
2022-11-17T03:27:37.059Z,10.00
2022-11-17T03:30:08.314Z,14.60
2022-11-17T03:32:41.248Z,15.27
2022-11-17T03:35:17.087Z,11.63
2022-11-17T03:37:50.061Z,12.53
2022-11-17T03:40:21.193Z,17.03
2022-11-17T03:42:53.856Z,27.73
2022-11-17T03:45:29.889Z,12.23
2022-11-17T03:48:21.963Z,19.27
2022-11-17T03:51:04.477Z,16.77
2022-11-17T03:53:32.583Z,10.93
2022-11-17T03:56:11.604Z,13.87
2022-11-17T03:58:47.323Z,9.27
2022-11-17T04:01:15.188Z,11.53
2022-11-17T04:03:42.642Z,10.57
2022-11-17T04:06:10.085Z,16.63
2022-11-17T04:08:37.507Z,11.57
2022-11-17T04:11:23.018Z,11.07
2022-11-17T04:14:09.040Z,14.47
2022-11-17T04:16:36.460Z,14.47
2022-11-17T04:19:03.996Z,16.90
2022-11-17T04:21:31.394Z,11.23
2022-11-17T04:23:58.871Z,17.03
2022-11-17T04:26:44.932Z,13.33
2022-11-17T04:29:12.330Z,11.37
2022-11-17T04:31:39.420Z,14.20
2022-11-17T04:34:07.888Z,11.67
2022-11-17T04:36:35.330Z,11.53
2022-11-17T04:39:03.062Z,11.43
2022-11-17T04:41:48.993Z,15.17
2022-11-17T04:44:17.845Z,13.13
2022-11-17T04:46:48.634Z,11.80
2022-11-17T04:49:17.210Z,14.77
2022-11-17T04:51:44.653Z,12.73
2022-11-17T04:54:14.681Z,10.20
2022-11-17T04:56:42.125Z,10.83
2022-11-17T04:59:09.306Z,11.63
2022-11-17T05:01:36.953Z,12.27
2022-11-17T05:04:33.467Z,10.97
2022-11-17T05:07:00.888Z,13.87
2022-11-17T05:09:28.682Z,11.83
2022-11-17T05:12:14.784Z,12.80
2022-11-17T05:14:42.214Z,22.85
2022-11-17T05:17:11.252Z,13.63
2022-11-17T05:19:41.649Z,29.67
2022-11-17T05:22:28.489Z,19.77
2022-11-17T05:24:56.156Z,20.93
2022-11-17T05:27:23.875Z,14.70
2022-11-17T05:29:51.321Z,14.90
2022-11-17T05:32:18.637Z,12.17
2022-11-17T05:34:46.198Z,14.70
2022-11-17T05:37:13.563Z,16.63
2022-11-17T05:39:40.611Z,24.40
2022-11-17T05:42:08.006Z,39.22
2022-11-17T05:44:35.386Z,12.80
2022-11-17T05:47:02.375Z,11.67
2022-11-17T05:49:29.821Z,13.00
2022-11-17T05:51:57.230Z,10.67
2022-11-17T05:54:24.739Z,16.03
2022-11-17T05:57:06.956Z,10.30
2022-11-17T05:59:45.885Z,18.50
2022-11-17T06:02:21.276Z,15.67
2022-11-17T06:04:50.503Z,9.53
2022-11-17T06:07:19.462Z,11.33
2022-11-17T06:09:47.007Z,9.67
2022-11-17T06:12:15.323Z,12.83
2022-11-17T06:14:42.779Z,7.73
2022-11-17T06:17:22.885Z,11.17
2022-11-17T06:19:57.572Z,9.90
2022-11-17T06:22:26.705Z,9.63
2022-11-17T06:24:54.419Z,9.77
2022-11-17T06:27:22.014Z,9.57
2022-11-17T06:29:49.828Z,13.40
2022-11-17T06:32:18.932Z,6.90
2022-11-17T06:34:53.833Z,13.73
2022-11-17T06:37:23.638Z,10.73
2022-11-17T06:39:51.021Z,9.23
2022-11-17T06:42:18.374Z,9.10
2022-11-17T06:44:45.768Z,9.50
2022-11-17T06:47:12.677Z,7.30
2022-11-17T06:49:39.656Z,16.73
2022-11-17T06:52:07.059Z,5.13
2022-11-17T06:54:34.413Z,5.77
2022-11-17T06:57:01.902Z,8.17
2022-11-17T06:59:29.319Z,7.47
2022-11-17T07:01:56.237Z,6.37
2022-11-17T07:04:23.640Z,5.30
2022-11-17T07:06:50.649Z,3.60
2022-11-17T07:09:18.156Z,5.83
2022-11-17T07:11:45.575Z,6.30
2022-11-17T07:14:12.571Z,4.33
2022-11-17T07:16:42.908Z,9.57
2022-11-17T07:19:10.948Z,6.37
2022-11-17T07:21:37.928Z,4.77
2022-11-17T07:24:09.851Z,4.70
2022-11-17T07:26:37.284Z,4.30
2022-11-17T07:29:04.543Z,5.00
2022-11-17T07:31:31.942Z,6.50
2022-11-17T07:33:59.534Z,3.90
2022-11-17T07:36:26.947Z,4.77
2022-11-17T07:38:54.375Z,6.73
2022-11-17T07:41:21.366Z,4.73
2022-11-17T07:43:48.796Z,4.53
2022-11-17T07:46:16.045Z,9.33
2022-11-17T07:48:43.676Z,4.57
2022-11-17T07:51:12.295Z,3.90
2022-11-17T07:53:39.660Z,2.70
2022-11-17T07:56:09.328Z,6.53
2022-11-17T07:58:37.580Z,6.77
2022-11-17T08:01:15.388Z,5.90
2022-11-17T08:03:43.619Z,4.83
2022-11-17T08:06:11.230Z,4.23
2022-11-17T08:08:38.774Z,4.50
2022-11-17T08:11:10.565Z,4.37
2022-11-17T08:13:39.421Z,4.67
2022-11-17T08:16:07.800Z,7.97
2022-11-17T08:18:35.903Z,3.73
2022-11-17T08:21:04.022Z,10.00
2022-11-17T08:23:31.505Z,5.33
2022-11-17T08:25:59.095Z,4.17
2022-11-17T08:28:26.298Z,4.90
2022-11-17T08:30:53.816Z,4.60
2022-11-17T08:33:21.239Z,5.50
2022-11-17T08:35:48.216Z,4.03
2022-11-17T08:38:15.509Z,3.27
2022-11-17T08:40:43.163Z,3.93
2022-11-17T08:43:10.191Z,3.23
2022-11-17T08:45:37.629Z,5.83
2022-11-17T08:48:07.393Z,3.67
2022-11-17T08:50:34.817Z,4.77
2022-11-17T08:53:01.780Z,2.70
2022-11-17T08:55:28.968Z,3.53
2022-11-17T08:57:56.023Z,4.03
2022-11-17T09:00:23.209Z,3.37
2022-11-17T09:02:50.597Z,2.77
2022-11-17T09:05:18.010Z,2.47
2022-11-17T09:07:45.545Z,3.10
2022-11-17T09:10:13.046Z,2.83
2022-11-17T09:12:40.449Z,4.70
2022-11-17T09:15:08.033Z,5.80
2022-11-17T09:17:35.818Z,4.03
2022-11-17T09:20:03.235Z,4.40
2022-11-17T09:22:30.600Z,10.53
2022-11-17T09:24:58.020Z,5.50
2022-11-17T09:27:25.038Z,4.17
2022-11-17T09:29:52.459Z,3.40
2022-11-17T09:32:20.741Z,4.23
2022-11-17T09:34:48.209Z,3.60
2022-11-17T09:37:15.696Z,4.73
2022-11-17T09:39:43.177Z,3.47
2022-11-17T09:42:15.672Z,3.27
2022-11-17T09:44:51.482Z,3.23
2022-11-17T09:47:43.654Z,4.00
2022-11-17T09:50:24.536Z,4.50
2022-11-17T09:52:59.704Z,3.57
2022-11-17T09:55:39.944Z,3.53
2022-11-17T09:58:27.133Z,3.77
2022-11-17T10:00:54.620Z,3.67
2022-11-17T10:03:31.977Z,3.73
2022-11-17T10:06:03.752Z,5.33
2022-11-17T10:08:40.085Z,3.73
2022-11-17T10:11:33.881Z,5.17
2022-11-17T10:14:15.824Z,3.87
2022-11-17T10:16:50.897Z,4.30
2022-11-17T10:19:21.650Z,3.50
2022-11-17T10:22:03.827Z,3.73
2022-11-17T10:24:41.483Z,4.10
2022-11-17T10:27:17.458Z,3.27
2022-11-17T10:30:17.856Z,3.10
2022-11-17T10:32:55.791Z,3.07
2022-11-17T10:35:23.242Z,3.93
2022-11-17T10:38:08.531Z,3.33
2022-11-17T10:40:38.960Z,4.13
2022-11-17T10:43:12.018Z,5.70
2022-11-17T10:45:56.509Z,3.37
2022-11-17T10:48:28.738Z,3.13
2022-11-17T10:51:15.353Z,4.27
2022-11-17T10:53:46.740Z,3.07
2022-11-17T10:56:21.821Z,2.63
2022-11-17T10:59:09.613Z,4.70
2022-11-17T11:01:39.079Z,4.07
2022-11-17T11:04:25.678Z,2.70
2022-11-17T11:07:06.419Z,2.50
2022-11-17T11:09:35.942Z,2.43
2022-11-17T11:12:06.078Z,3.67
2022-11-17T11:14:59.879Z,3.70
2022-11-17T11:17:30.109Z,3.47
2022-11-17T11:19:57.901Z,2.40
2022-11-17T11:22:27.953Z,5.23
2022-11-17T11:25:02.061Z,2.77
2022-11-17T11:27:48.067Z,4.03
2022-11-17T11:30:19.449Z,5.30
2022-11-17T11:33:33.325Z,3.87
2022-11-17T11:36:19.331Z,6.77
2022-11-17T11:39:14.884Z,3.27
2022-11-17T11:41:42.246Z,3.40
2022-11-17T11:44:18.026Z,4.90
2022-11-17T11:46:45.415Z,3.07
2022-11-17T11:49:21.399Z,3.13
2022-11-17T11:51:51.277Z,2.93
2022-11-17T11:54:50.552Z,5.60
2022-11-17T11:57:24.309Z,3.80
2022-11-17T12:00:04.311Z,3.50
2022-11-17T12:03:02.507Z,8.30
2022-11-17T12:06:37.972Z,5.97
2022-11-17T12:09:28.944Z,3.27
2022-11-17T12:12:00.262Z,3.50
2022-11-17T12:14:37.871Z,3.43
2022-11-17T12:17:14.048Z,4.60
2022-11-17T12:19:55.253Z,3.07
2022-11-17T12:22:25.393Z,4.23
2022-11-17T12:24:57.312Z,3.37
2022-11-17T12:27:33.560Z,4.80
2022-11-17T12:30:02.473Z,8.83
2022-11-17T12:32:45.284Z,3.70
2022-11-17T12:35:31.668Z,3.47
2022-11-17T12:38:16.909Z,4.17
2022-11-17T12:40:50.782Z,5.00
2022-11-17T12:43:23.702Z,3.53
2022-11-17T12:45:53.719Z,2.77
2022-11-17T12:48:33.986Z,4.70
2022-11-17T12:51:05.094Z,4.97
2022-11-17T12:53:57.653Z,3.03
2022-11-17T12:56:53.623Z,3.80
2022-11-17T12:59:58.772Z,7.33
2022-11-17T13:02:47.284Z,4.17
2022-11-17T13:05:15.767Z,4.77
2022-11-17T13:07:42.697Z,4.23
2022-11-17T13:10:30.775Z,5.13
2022-11-17T13:13:19.507Z,5.57
2022-11-17T13:15:56.038Z,3.00
2022-11-17T13:18:23.440Z,3.83
2022-11-17T13:20:50.605Z,5.00
2022-11-17T13:23:25.774Z,6.20
2022-11-17T13:26:24.066Z,4.87
2022-11-17T13:29:12.563Z,4.50
2022-11-17T13:31:39.954Z,4.97
2022-11-17T13:34:13.454Z,5.80
2022-11-17T13:36:58.181Z,7.03
2022-11-17T13:39:27.915Z,3.07
2022-11-17T13:41:57.760Z,2.80
2022-11-17T13:44:27.625Z,2.93
2022-11-17T13:46:55.279Z,3.33
2022-11-17T13:49:35.011Z,3.30
2022-11-17T13:52:03.176Z,4.13
2022-11-17T13:54:30.633Z,7.47
2022-11-17T13:57:07.944Z,3.30
2022-11-17T13:59:37.293Z,4.30
2022-11-17T14:02:16.564Z,5.63
2022-11-17T14:05:09.743Z,3.47
2022-11-17T14:07:39.030Z,3.40
2022-11-17T14:10:28.102Z,4.00
2022-11-17T14:13:01.117Z,4.93
2022-11-17T14:15:31.175Z,3.83
2022-11-17T14:18:00.549Z,7.00
2022-11-17T14:20:32.577Z,3.90
2022-11-17T14:23:19.894Z,3.90
2022-11-17T14:25:51.548Z,3.40
2022-11-17T14:28:21.366Z,3.87
2022-11-17T14:30:53.444Z,3.03
2022-11-17T14:33:20.996Z,3.77
2022-11-17T14:35:57.026Z,5.73
2022-11-17T14:38:24.541Z,3.43
2022-11-17T14:40:52.640Z,3.27
2022-11-17T14:43:21.055Z,4.17
2022-11-17T14:45:49.727Z,7.07
2022-11-17T14:48:20.283Z,3.83
2022-11-17T14:50:48.450Z,4.73
2022-11-17T14:53:15.691Z,6.30
2022-11-17T14:55:43.138Z,6.20
2022-11-17T14:58:10.291Z,4.50
2022-11-17T15:00:37.823Z,4.57
2022-11-17T15:03:05.406Z,4.10
2022-11-17T15:05:32.512Z,3.67
2022-11-17T15:07:59.957Z,4.60
2022-11-17T15:10:27.380Z,6.57
2022-11-17T15:12:54.552Z,6.37
2022-11-17T15:15:22.018Z,5.33
2022-11-17T15:17:49.479Z,4.33
2022-11-17T15:20:16.908Z,5.47
2022-11-17T15:22:44.322Z,5.87
2022-11-17T15:25:11.408Z,7.93
2022-11-17T15:27:38.859Z,8.67
2022-11-17T15:30:06.584Z,6.83
2022-11-17T15:32:33.741Z,4.93
2022-11-17T15:35:00.727Z,6.50
2022-11-17T15:37:27.868Z,7.20
2022-11-17T15:39:55.299Z,5.90
2022-11-17T15:42:22.462Z,5.97
2022-11-17T15:44:49.421Z,5.53
2022-11-17T15:47:16.861Z,6.23
2022-11-17T15:49:46.550Z,6.97
2022-11-17T15:52:13.646Z,6.07
2022-11-17T15:54:41.081Z,6.03
2022-11-17T15:57:08.325Z,4.37
2022-11-17T15:59:35.737Z,6.77
2022-11-17T16:02:09.098Z,6.93
2022-11-17T16:04:36.383Z,4.67
2022-11-17T16:07:04.384Z,4.30
2022-11-17T16:09:31.856Z,8.37
2022-11-17T16:11:59.066Z,6.57
2022-11-17T16:14:26.696Z,5.43
2022-11-17T16:16:54.105Z,4.87
2022-11-17T16:19:21.091Z,11.53
2022-11-17T16:21:49.941Z,6.53
2022-11-17T16:24:17.447Z,6.47
2022-11-17T16:26:45.831Z,8.43
2022-11-17T16:29:13.502Z,5.50
2022-11-17T16:31:40.709Z,7.87
2022-11-17T16:34:12.906Z,6.17
2022-11-17T16:36:41.484Z,5.97
2022-11-17T16:39:11.753Z,5.97
2022-11-17T16:41:41.396Z,9.83
2022-11-17T16:44:11.472Z,6.63
2022-11-17T16:46:39.382Z,9.37
2022-11-17T16:49:09.309Z,5.53
2022-11-17T16:51:36.373Z,5.37
2022-11-17T16:54:10.521Z,5.47
2022-11-17T16:56:37.948Z,6.63
2022-11-17T16:59:05.432Z,6.67
2022-11-17T17:01:34.765Z,6.97
2022-11-17T17:04:04.867Z,7.87
2022-11-17T17:06:32.516Z,8.77
2022-11-17T17:09:03.037Z,8.53
2022-11-17T17:11:32.053Z,8.00
2022-11-17T17:14:02.885Z,7.87
2022-11-17T17:16:31.498Z,9.17
2022-11-17T17:19:01.713Z,9.37
2022-11-17T17:21:29.875Z,9.70
2022-11-17T17:23:57.473Z,10.03
2022-11-17T17:26:27.678Z,7.53
2022-11-17T17:28:56.792Z,9.93
2022-11-17T17:31:25.239Z,8.63
2022-11-17T17:33:52.812Z,7.57
2022-11-17T17:36:22.585Z,8.57
2022-11-17T17:38:55.338Z,9.20
2022-11-17T17:41:26.869Z,8.77
2022-11-17T17:43:57.013Z,10.03
2022-11-17T17:46:24.486Z,10.07
2022-11-17T17:48:51.612Z,10.07
2022-11-17T17:51:20.692Z,9.60
2022-11-17T17:53:50.187Z,10.10
2022-11-17T17:56:19.722Z,10.83
2022-11-17T17:58:48.944Z,10.93
2022-11-17T18:01:36.841Z,10.60
2022-11-17T18:04:05.108Z,11.90
2022-11-17T18:06:41.219Z,8.60
2022-11-17T18:09:10.064Z,12.57
2022-11-17T18:11:40.528Z,16.80
2022-11-17T18:14:09.829Z,19.70
2022-11-17T18:16:37.262Z,12.00
2022-11-17T18:19:07.551Z,12.03
2022-11-17T18:21:36.220Z,12.17
2022-11-17T18:24:03.811Z,14.47
2022-11-17T18:26:34.017Z,14.77
2022-11-17T18:29:06.966Z,10.90
2022-11-17T18:31:36.225Z,13.10
2022-11-17T18:34:06.852Z,11.57
2022-11-17T18:36:34.924Z,10.77
2022-11-17T18:39:02.591Z,12.70
2022-11-17T18:41:34.066Z,11.57
2022-11-17T18:44:01.657Z,14.00
2022-11-17T18:46:30.791Z,12.60
2022-11-17T18:48:58.776Z,17.50
2022-11-17T18:51:28.244Z,12.23
2022-11-17T18:53:57.388Z,13.77
2022-11-17T18:56:26.950Z,12.53
2022-11-17T18:58:54.415Z,13.70
2022-11-17T19:01:27.873Z,15.13
2022-11-17T19:03:57.233Z,15.17
2022-11-17T19:06:25.096Z,14.47
2022-11-17T19:08:52.786Z,14.67
2022-11-17T19:11:21.819Z,13.90
2022-11-17T19:13:49.269Z,13.17
2022-11-17T19:16:18.819Z,16.80
2022-11-17T19:18:47.667Z,15.80
2022-11-17T19:21:17.288Z,13.10
2022-11-17T19:23:51.432Z,13.27
2022-11-17T19:26:27.608Z,16.60
2022-11-17T19:28:56.163Z,16.20
2022-11-17T19:31:23.910Z,14.20
2022-11-17T19:33:51.505Z,13.37
2022-11-17T19:36:21.000Z,15.50
2022-11-17T19:38:55.865Z,15.67
2022-11-17T19:41:31.805Z,14.93
2022-11-17T19:44:03.995Z,17.20
2022-11-17T19:46:32.230Z,15.77
2022-11-17T19:48:59.976Z,12.40
2022-11-17T19:51:30.175Z,17.40
2022-11-17T19:54:01.106Z,15.20
2022-11-17T19:56:28.541Z,14.50
2022-11-17T19:58:56.169Z,15.23
2022-11-17T20:01:25.367Z,17.23
2022-11-17T20:03:52.960Z,14.30
2022-11-17T20:06:22.535Z,22.73
2022-11-17T20:08:51.093Z,20.73
2022-11-17T20:11:20.548Z,15.33
2022-11-17T20:13:47.946Z,19.93
2022-11-17T20:16:20.408Z,14.47
2022-11-17T20:18:53.993Z,14.77
2022-11-17T20:21:21.531Z,14.53
2022-11-17T20:23:48.787Z,18.03
2022-11-17T20:26:40.359Z,16.70
2022-11-17T20:29:07.776Z,17.60
2022-11-17T20:31:36.415Z,19.42
2022-11-17T20:34:05.356Z,16.57
2022-11-17T20:36:34.175Z,15.53
2022-11-17T20:39:04.245Z,15.13
2022-11-17T20:41:31.558Z,13.77
2022-11-17T20:44:00.711Z,17.33
2022-11-17T20:46:28.137Z,19.83
2022-11-17T20:48:55.607Z,21.97
2022-11-17T20:51:24.305Z,15.57
2022-11-17T20:53:51.592Z,16.07
2022-11-17T20:56:19.327Z,16.60
2022-11-17T20:58:46.778Z,16.10
2022-11-17T21:01:16.073Z,16.70
2022-11-17T21:03:45.227Z,15.67
2022-11-17T21:06:13.433Z,17.77
2022-11-17T21:08:42.285Z,17.57
2022-11-17T21:11:32.270Z,15.57
2022-11-17T21:13:59.748Z,18.17
2022-11-17T21:16:27.189Z,16.93
2022-11-17T21:18:54.280Z,17.93
2022-11-17T21:21:21.654Z,16.60
2022-11-17T21:23:53.686Z,14.27
2022-11-17T21:26:21.190Z,18.87
2022-11-17T21:28:48.588Z,15.93
2022-11-17T21:31:21.106Z,20.17
2022-11-17T21:33:48.725Z,19.73
2022-11-17T21:36:17.303Z,19.27
2022-11-17T21:38:45.553Z,15.57
2022-11-17T21:41:21.047Z,22.27
2022-11-17T21:43:49.877Z,19.40
2022-11-17T21:46:23.106Z,17.67
2022-11-17T21:48:51.426Z,20.53
2022-11-17T21:51:33.261Z,15.80
2022-11-17T21:54:19.635Z,17.23
2022-11-17T21:57:05.384Z,20.30
2022-11-17T21:59:32.421Z,16.60
2022-11-17T22:02:00.019Z,18.60
2022-11-17T22:04:27.398Z,35.13
2022-11-17T22:06:54.873Z,21.63
2022-11-17T22:09:22.606Z,21.30
2022-11-17T22:11:51.344Z,22.53
2022-11-17T22:14:20.069Z,22.70
2022-11-17T22:16:49.313Z,22.00
2022-11-17T22:19:17.212Z,19.80
2022-11-17T22:21:46.940Z,18.50
2022-11-17T22:24:14.646Z,22.17
2022-11-17T22:26:43.893Z,24.13
2022-11-17T22:29:19.925Z,24.67
2022-11-17T22:31:48.680Z,19.83
2022-11-17T22:34:16.324Z,18.90
2022-11-17T22:36:43.753Z,25.63
2022-11-17T22:39:11.215Z,25.00
2022-11-17T22:41:38.395Z,20.03
2022-11-17T22:44:06.377Z,23.83
2022-11-17T22:46:34.978Z,19.37
2022-11-17T22:49:03.197Z,23.97
2022-11-17T22:51:49.796Z,22.37
2022-11-17T22:54:17.227Z,19.23
2022-11-17T22:56:45.516Z,23.30
2022-11-17T22:59:12.986Z,19.90
2022-11-17T23:01:40.393Z,24.60
2022-11-17T23:04:07.881Z,22.07
2022-11-17T23:06:35.371Z,24.37
2022-11-17T23:09:02.461Z,21.00
2022-11-17T23:11:38.348Z,26.43
2022-11-17T23:14:12.401Z,24.60
2022-11-17T23:16:40.101Z,26.40
2022-11-17T23:19:09.446Z,22.73
2022-11-17T23:21:36.581Z,25.37
2022-11-17T23:24:04.789Z,25.77
2022-11-17T23:26:32.157Z,29.60
2022-11-17T23:28:59.624Z,27.00
2022-11-17T23:31:29.973Z,23.77
2022-11-17T23:33:57.573Z,24.43
2022-11-17T23:36:25.054Z,28.97
2022-11-17T23:38:54.783Z,31.87
2022-11-17T23:41:22.010Z,28.80
2022-11-17T23:43:53.523Z,26.53
2022-11-17T23:46:23.625Z,31.17
2022-11-17T23:48:51.116Z,29.77
2022-11-17T23:51:22.947Z,27.63
2022-11-17T23:53:49.987Z,30.43
2022-11-17T23:56:19.207Z,31.93
2022-11-17T23:58:46.501Z,29.07
